Terminal Aerodrome Forecast
Issued by NWS

Home | Current Version | Previous Version | Text Only | Print | Product List | Glossary On
Versions: 1 2 3 4 5 6 7 8 9 10 11 12 13 14 15 16
189
FTAK31 PAJN 281734
TAFASI
TAF
PASI 281734Z 2818/2918 11005KT P6SM VCSH SCT040 OVC070
     FM290700 15008KT 6SM -SHRA BR OVC025
     FM291200 12009KT 5SM -SHRA BR BKN015 OVC025=

USA.gov is the U.S. government's official web portal to all federal, state and local government web resources and services.